Skip Navigation Links
NOAA logo - Click to go to the NOAA homepage
NOAA's National Weather Service
Alaska Aviation Weather Unit
  NWS logo - Click to go to the NWS homepage
Left Navbar Graphic     19 AKDT = 03 GMT

   
NOAA is celebrating 200 years of science, service, and stewardship. Visit the NOAA 200th celebration Web site to learn more.
USA.gov is the U.S. Government's official Web portal to all Federal, state and local government Web resources and services.
Facebook
NWS on Facebook

Important Change Regarding the AAWU Web Presence

 

Over the last several months, the AAWU has been working to navigate its webpages to a nationally supported server. Security, as well as other needs, have necessitated the change.  In the process, we have made an effort to enhance the functionality of our website, as well as some of our products. As of June 20, 2017, aawu.arh.noaa.gov will be discontinued. The new AAWU web address is weather.gov/aawu. It is now live and will run in-parallel with the old site until it is discontinued. Please send any feedback or questions regarding the new webpages to nws.ar.aawu.webauthors@noaa.gov.  Thank you for your patience during this time of transition.
AAWU Home :: Display TAF Add Bookmark
TAF PAGA 250101Z 2501/2524 18010KT P6SM VCSH SCT025 BKN035
      TEMPO 2501/2505 P6SM -SHRA BKN025
     FM250600 21008KT 6SM BR VCSH SCT035 BKN050 BKN100=
SPECI PAGA 242129Z AUTO 16009KT 10SM BKN021 OVC055 08/05 A2961 RMK AO2
     RAE12 PNO $=

METAR PAGA 242157Z AUTO 16009KT 10SM OVC021 08/05 A2961=

METAR PAGA 242257Z AUTO 20012KT 10SM SCT022 BKN029 OVC055 08/03
     A2962=

PAGA 242306Z AUTO 19008KT 10SM FEW022 BKN047 OVC065 08/04 A2962=

PAGA 242312Z AUTO 16010KT 10SM SCT023 BKN029 OVC065 08/03 A2962=

SPECI PAGA 242315Z AUTO 16009KT 10SM SCT023 BKN031 OVC060 08/03 A2962
     RMK AO2 PNO $=

METAR PAGA 242357Z AUTO 19012KT 10SM FEW023 SCT065 OVC080 08/03
     A2961=

SPECI PAGA 250015Z AUTO 18013KT 10SM BKN027 BKN065 OVC080 08/03 A2961
     RMK AO2 PNO $=

SPECI PAGA 250019Z AUTO 18011KT 10SM SCT025 BKN030 OVC085 08/03 A2961
     RMK AO2 PNO $=

PAGA 250022Z AUTO 18010KT 10SM BKN025 BKN030 OVC085 08/03 A2961=

SPECI PAGA 250031Z AUTO 19011KT 10SM SCT025 BKN032 OVC085 08/03 A2961
     RMK AO2 PNO $=

SPECI PAGA 250045Z AUTO 18011G17KT 10SM BKN029 08/03 A2962 RMK AO2 PNO
     $=

SPECI PAGA 250052Z AUTO 17011KT 10SM BKN030 BKN036 09/03 A2962 RMK AO2
     PNO $=

METAR PAGA 250057Z AUTO 17009KT 10SM SCT030 BKN036 09/03 A2962=

METAR PAGA 250157Z AUTO 21009G16KT 10SM SCT029 BKN038 OVC090 09/03
     A2962=

SPECI PAGA 250221Z AUTO 19011G16KT 10SM BKN029 BKN034 OVC085 09/03 A2963
     RMK AO2 PNO $=

SPECI PAGA 250227Z AUTO 22016G20KT 10SM BKN031 BKN038 OVC085 09/03 A2963
     RMK AO2 PNO $=

METAR PAGA 250257Z AUTO 24016G26KT 10SM FEW029 BKN034 OVC060 06/03 A2966
     RMK AO2 PK WND 24031/0234 SLP051 6//// T00610028 53016 PNO
     $=


NOAA's National Weather Service
Alaska Aviation Weather Unit
6930 Sand Lake Road
Anchorage, AK 99502-1845
Disclaimer
Credits
Glossary
Privacy Policy
About Us
Career Opportunities
Contact AAWU Internet Services Site last modified: April, 17th 2012